IE-0003 weather

CLOSED Mallow International Airport
Mallow, County Cork, Ireland

Public forecast

Using degrees Celsius for public forecast. Weather courtesy of forecast.io.

METAR (pilot weather report)

Closest report is Cork Airport, 18.9 nm (35.0 km) SSE. Retrieved 2019/06/25 12:30 UTC (25 minutes ago):

EICK 251230Z 13005KT 100V170 9999 FEW012 BKN018 BKN060 18/15 Q1021 NOSIG

TAF (pilot weather forecast)

Closest forecast is Cork Airport, 18.9 nm (35.0 km) SSE. Retrieved 2019/06/25 12:09 UTC (46 minutes ago):

TAF TAF EICK 251100Z 2512/2612 13010KT 9999 FEW010 BKN025 TEMPO 2512/2520 -SHRA SCT018CB BECMG 2514/2517 16008KT TEMPO 2515/2518 5000 SHRA BECMG 2518/2520 12005KT BECMG 2520/2523 VRB03KT BECMG 2600/2603 03006KT PROB30 TEMPO 2602/2606 3000 BR BECMG 2606/2608 05012KT